Current Conditions (Updated 3:10am on 5/18/24)
Temperature
 58°
-0.58
60°  
58°  
0
10
20
30
40
50
60
70
80
90
100
Dew Point
54°
55°  
54°  
-20
-10
0
10
20
30
40
50
60
70
80
Wind Chill
58°
60°  
58°  
-20
-10
0
10
20
30
40
50
60
70
80
Wind Chill
Humidity
88%
88% 
84% 
0
10
20
30
40
50
60
70
80
90
100
Barometer
29.93
   Steady
29.96  
29.93  
28.00
28.30
28.60
28.90
29.20
29.50
29.80
30.10
30.40
30.70
31.00
Temperature
Dew Point
Humidity
Pressure
Wind
0mph
 NW
Daily Rain
.00
.05
.10
.15
.20
.25
.30
.35
.40
.45
.50
Rain Today
 0.00" 
Month Rain
0.00
0.50
1.00
1.50
2.00
2.50
3.00
3.50
4.00
4.50
5.00
Month Rain
 2.17" 
Year Rain
0.00
2.50
5.00
7.50
10.00
12.50
15.00
17.50
20.00
22.50
25.00
Year Rain
 22.20" 
Sun & Moon Data
Sunrise 5:46am
Sunset 8:09pm
Moonrise 3:35pm
Moonset 3:18am
Moon % 67%
Other Rain Data
Past Hour 0.00 Past 24 Hours 0.00
Past 3 Hours 0.00 Past 7 Days 1.38
Past 6 Hours 0.00
Cloud Height
880


7 Day Forecast
NWS Forecast for Georgetown, Sussex County Airport DE
National Weather Service Forecast for: Georgetown, Sussex County Airport DE
Issued by: National Weather Service Philadelphia, PA
Updated: 1:51 am EDT May 18, 2024

Georgetown,DE.
 
Overnight

Overnight: Mostly cloudy, with a low around 54. Calm wind.
Mostly Cloudy

Saturday

Saturday: Showers likely, mainly after 10am.  Cloudy, with a high near 64. East wind around 5 mph.  Chance of precipitation is 70%. New precipitation amounts between a tenth and quarter of an inch possible.
Showers
Likely
Saturday
Night
Saturday Night: Scattered showers, mainly before 8pm.  Cloudy, with a low around 54. Northeast wind around 5 mph.  Chance of precipitation is 30%. New precipitation amounts of less than a tenth of an inch possible.
Scattered
Showers then
Cloudy
Sunday

Sunday: Mostly cloudy, with a high near 66. Northeast wind 5 to 10 mph.
Mostly Cloudy

Sunday
Night
Sunday Night: Mostly cloudy, with a low around 52. Northeast wind around 5 mph.
Mostly Cloudy

Monday

Monday: Mostly sunny, with a high near 69.
Mostly Sunny

Monday
Night
Monday Night: Partly cloudy, with a low around 51.
Partly Cloudy

Tuesday

Tuesday: Sunny, with a high near 74.
Sunny

Tuesday
Night
Tuesday Night: Mostly clear, with a low around 55.
Mostly Clear

Lo 54 °F Hi 64 °F Lo 54 °F Hi 66 °F Lo 52 °F Hi 69 °F Lo 51 °F Hi 74 °F Lo 55 °F

 

Overnight
 
Mostly cloudy, with a low around 54. Calm wind.
Saturday
 
Showers likely, mainly after 10am. Cloudy, with a high near 64. East wind around 5 mph. Chance of precipitation is 70%. New precipitation amounts between a tenth and quarter of an inch possible.
Saturday Night
 
Scattered showers, mainly before 8pm. Cloudy, with a low around 54. Northeast wind around 5 mph. Chance of precipitation is 30%. New precipitation amounts of less than a tenth of an inch possible.
Sunday
 
Mostly cloudy, with a high near 66. Northeast wind 5 to 10 mph.
Sunday Night
 
Mostly cloudy, with a low around 52. Northeast wind around 5 mph.
Monday
 
Mostly sunny, with a high near 69.
Monday Night
 
Partly cloudy, with a low around 51.
Tuesday
 
Sunny, with a high near 74.
Tuesday Night
 
Mostly clear, with a low around 55.
Wednesday
 
Sunny, with a high near 80.
Wednesday Night
 
Partly cloudy, with a low around 62.
Thursday
 
A chance of showers and thunderstorms. Mostly sunny, with a high near 83. Chance of precipitation is 30%.
Thursday Night
 
A chance of showers and thunderstorms. Mostly cloudy, with a low around 60. Chance of precipitation is 30%.
Friday
 
Mostly sunny, with a high near 78.

 

Forecast from NOAA-NWS for Georgetown, Sussex County Airport DE.

Current Front Map
Current Radar
Current Cloud Map
Area Weather Current Conditions
Nearby METAR Reports

KPHL - Philadelphia, Pennsylvania
Updated: Sat, 18-May-2024 2:54am EDT
Mostly Cloudy
Mostly Cloudy
 Wind from calm
Wind: Calm
Temperature: 59°F , 15°C
Dew Point: 57°F , 14°C
Humidity: 94%
Barometer: 29.95 inHg , 1014.2 hPa
Clouds: Mostly Cloudy
Visibility: 9 miles , 14 km
Cloud details: Partly Cloudy 11000 ft
Mostly Cloudy 19000 ft
Mostly Cloudy 25000 ft
2024/05/18 06:54 KPHL 180654Z 00000KT 9SM SCT110 BKN190 BKN250 15/14 A2995 RMK AO2 SLP142 T01500144
KMPO - Mt. Pocono, Pennsylvania
Updated: Sat, 18-May-2024 2:53am EDT
Overcast
Overcast
 Wind from calm
Wind: Calm
Temperature: 55°F , 13°C
Dew Point: 54°F , 12°C
Humidity: 94%
Barometer: 29.96 inHg , 1014.6 hPa
Clouds: Overcast
Visibility: 10 miles , 16 km
Cloud details: Overcast 5000 ft
2024/05/18 06:53 KMPO 180653Z AUTO 00000KT 10SM OVC050 13/12 A2996 RMK AO2 SLP142 T01330122
 
KACY - Atlantic City, New Jersey
Updated: Sat, 18-May-2024 2:54am EDT
Overcast
Overcast
 Wind from calm
Wind: Calm
Temperature: 59°F , 15°C
Dew Point: 54°F , 12°C
Humidity: 82%
Barometer: 29.95 inHg , 1014.2 hPa
Clouds: Overcast
Visibility: 10 miles , 16 km
Cloud details: Mostly Cloudy 2000 ft
Overcast 2800 ft
2024/05/18 06:54 KACY 180654Z 00000KT 10SM BKN020 OVC028 15/12 A2995 RMK AO2 SLP141 T01500122 $
KWWD - Wildwood, New Jersey
Updated: Sat, 18-May-2024 2:56am EDT
Clear
Clear
 Wind from calm
Wind: Calm
Temperature: 57°F , 14°C
Dew Point: 57°F , 14°C
Humidity: 100%
Barometer: 29.97 inHg , 1014.9 hPa
Clouds: Clear
Visibility: 10 miles , 16 km
2024/05/18 06:56 KWWD 180656Z AUTO 00000KT 10SM CLR 14/14 A2997 RMK AO2 SLP150 T01440139
 
KGED - Georgetown, Delaware
Updated: Sat, 18-May-2024 2:54am EDT
Few Clouds
Few Clouds
 Wind from calm
Wind: Calm
Temperature: 57°F , 14°C
Dew Point: 55°F , 13°C
Humidity: 94%
Barometer: 29.95 inHg , 1014.2 hPa
Clouds: Few Clouds
Visibility: 10 miles , 16 km
Cloud details: Few Clouds 12000 ft
2024/05/18 06:54 KGED 180654Z AUTO 00000KT 10SM FEW120 14/13 A2995 RMK AO2 SLP141 T01390128
KDOV - Dover Afb, Delaware
Updated: Sat, 18-May-2024 2:55am EDT
Mostly Cloudy
Mostly Cloudy
 Wind from calm
Wind: Calm
Temperature: 59°F , 15°C
Dew Point: 55°F , 13°C
Humidity: 88%
Barometer: 29.93 inHg , 1013.5 hPa
Clouds: Mostly Cloudy
Visibility: 10 miles , 16 km
Cloud details: Mostly Cloudy 11000 ft
Mostly Cloudy 13000 ft
2024/05/18 06:55 KDOV 180655Z AUTO 00000KT 10SM BKN110 BKN130 15/13 A2993 RMK AO2 SLPNO T01470131
 
KOXB - Ocean City, Maryland
Updated: Sat, 18-May-2024 2:53am EDT
Clear
Clear
 Wind from calm
Wind: Calm
Temperature: 54°F , 12°C
Dew Point: 50°F , 10°C
Humidity: 88%
Barometer: 29.95 inHg , 1014.2 hPa
Clouds: Clear
Visibility: 8 miles , 13 km
2024/05/18 06:53 KOXB 180653Z AUTO 00000KT 8SM CLR 12/10 A2995 RMK AO2 SLP143 T01170100
KSBY - Salisbury, Maryland
Updated: Sat, 18-May-2024 2:54am EDT
Few Clouds
Few Clouds
 Wind from calm
Wind: Calm
Temperature: 54°F , 12°C
Dew Point: 54°F , 12°C
Humidity: 100%
Barometer: 29.95 inHg , 1014.2 hPa
Clouds: Few Clouds
Visibility: 10 miles , 16 km
Cloud details: Few Clouds 200 ft
2024/05/18 06:54 KSBY 180654Z AUTO 00000KT 10SM FEW002 12/12 A2995 RMK AO2 SLP143 T01170117
Severe Weather Map